^^

Meteo Aereoporti Centro-Italia

 

 
LIRZ - Perugia S.Egidio (208 m.)
Dati ricevuti: 18/09/2019 04:50
Sereno
Sereno
 Vento da N
Vento: N 9 km/h
TEMPERATURA: 16°C
P.to di Rugiada: 14°C
Umidità: 88%
Pressione: 1016 hPa
Nuvole: Sereno
Visibilità: 10 km
2019/09/18 02:50 LIRZ 180250Z AUTO 01005KT 9999 NCD 16/14 Q1016
 
LIPY - Ancona Falconara (12 m.)
Dati ricevuti: 18/09/2019 04:50
Sereno
Sereno
 Vento da SSE
Vento: SSE 7 km/h
TEMPERATURA: 22°C
P.to di Rugiada: 16°C
Umidità: 69%
Pressione: 1013 hPa
Nuvole: Sereno
Visibilità: 10 km
2019/09/18 02:50 LIPY 180250Z AUTO 16004KT 9999 NCD 22/16 Q1013
 
LIPR - Rimini Miramare (12 m.)
Dati ricevuti: 18/09/2019 05:20
Sereno
Sereno
 Vento da direzione variabile
Vento: direzione variabile 4 km/h
TEMPERATURA: 17°C
P.to di Rugiada: 13°C
Umidità: 77%
Pressione: 1013 hPa
Nuvole: Sereno
Visibilità: 10 km
2019/09/18 03:20 LIPR 180320Z AUTO VRB02KT 9999 NCD 17/13 Q1013
 
LIRF - Roma Fiumicino (2 m.)
Dati ricevuti: 18/09/2019 05:20
Qualche nuvola
Qualche nuvola
 Vento da ENE
Vento: ENE 6 km/h
TEMPERATURA: 18°C
P.to di Rugiada: 17°C
Umidità: 94%
Pressione: 1015 hPa
Nuvole: Qualche nuvola
Visibilità: 10 km
Dettagli Nuvole: Qualche nuvola 610 m
2019/09/18 03:20 LIRF 180320Z 07003KT 9999 FEW020 18/17 Q1015 NOSIG
 
LIRA - Roma Ciampino (129 m.)
Dati ricevuti: 18/09/2019 04:50
Qualche nuvola
Qualche nuvola
 Vento da E
Vento: E 7 km/h
TEMPERATURA: 19°C
P.to di Rugiada: 16°C
Umidità: 83%
Pressione: 1016 hPa
Nuvole: Qualche nuvola
Visibilità: 10 km
Dettagli Nuvole: Qualche nuvola 610 m
2019/09/18 02:50 LIRA 180250Z 10004KT 9999 FEW020 19/16 Q1016
 
LIRU - Roma Urbe (17 m.)
Dati ricevuti: 17/09/2019 19:50
Dati non aggiornati
Sereno
Sereno
 Vento da direzione variabile
Vento: direzione variabile 6 km/h
TEMPERATURA: 24°C
P.to di Rugiada: 18°C
Umidità: 69%
Pressione: 1016 hPa
Condizioni generali: Sereno
Visibilità: oltre 10 km
2019/09/17 17:50 LIRU 171750Z VRB03KT CAVOK 24/18 Q1016
 
LIVF - Frontone (570 m.)
Dati ricevuti: 16/09/2019 07:55
Dati non aggiornati
Sereno
Sereno
 Vento da SSW
Vento: SSW 4 km/h
TEMPERATURA: 18°C
P.to di Rugiada: 14°C
Umidità: 78%
Pressione: 1021 hPa
Condizioni generali: Sereno
Visibilità: oltre 10 km
2019/09/16 05:55 LIVF 160555Z 21002KT CAVOK 18/14 Q1021 RMK SCT FEW090 SCT200 MON LIB VAL FOSCHIA DIM ELEV VIS MIN 9999
 
LIRQ - Firenze Peretola (40 m.)
Dati ricevuti: 18/09/2019 05:20
Poco nuvoloso
Poco nuvoloso
 Vento da direzione variabile
Vento: direzione variabile 4 km/h
TEMPERATURA: 18°C
P.to di Rugiada: 16°C
Umidità: 88%
Pressione: 1015 hPa
Nuvole: Poco nuvoloso
Visibilità: 10 km
Dettagli Nuvole: Poco nuvoloso 914 m
2019/09/18 03:20 LIRQ 180320Z VRB02KT 9999 SCT030 18/16 Q1015
 
LIBP - Pescara (10 m.)
Dati ricevuti: 18/09/2019 04:50
Sereno
Sereno
 Vento da SW
Vento: SW 4 km/h
TEMPERATURA: 18°C
P.to di Rugiada: 16°C
Umidità: 88%
Pressione: 1013 hPa
Nuvole: Sereno
Visibilità: 10 km
2019/09/18 02:50 LIBP 180250Z AUTO 22002KT 9999 NCD 18/16 Q1013
 
LIRV - Viterbo (300 m.)
Dati ricevuti: 17/09/2019 21:55
Dati non aggiornati
Sereno
Sereno
 Vento da direzione variabile
Vento: direzione variabile 0 km/h
TEMPERATURA: 19°C
P.to di Rugiada: 17°C
Umidità: 88%
Pressione: 1016 hPa
Condizioni generali: Sereno
Visibilità: oltre 10 km
2019/09/17 19:55 LIRV 171955Z /////KT CAVOK 19/17 Q1016
 
LIQN - Rieti (389 m.)
Dati ricevuti: 17/09/2019 19:50
Dati non aggiornati
Sereno
Sereno
 Vento da SSE
Vento: SSE 7 km/h
TEMPERATURA: 23°C
P.to di Rugiada: 12°C
Umidità: 50%
Pressione: 1016 hPa
Condizioni generali: Sereno
Visibilità: oltre 10 km
2019/09/17 17:50 LIQN 171750Z 16004KT CAVOK 23/12 Q1016
 
LIRG - Guidonia -RM- (88 m.)
Dati ricevuti: 17/09/2019 19:55
Dati non aggiornati
Sereno
Sereno
 Vento da W
Vento: W 6 km/h
TEMPERATURA: 24°C
P.to di Rugiada: 16°C
Umidità: 61%
Pressione: 1016 hPa
Condizioni generali: Sereno
Visibilità: oltre 10 km
2019/09/17 17:55 LIRG 171755Z 28003KT CAVOK 24/16 Q1016
 
LIRK - Terminillo -RI-(1874 m.)
Dati ricevuti: 18/09/2019 04:55

 Vento da W
Vento: W 15 km/h
TEMPERATURA: 12°C
P.to di Rugiada: 6°C
Umidità: 67%
Pressione: 1023 hPa
2019/09/18 02:55 LIRK 180255Z AUTO 28008KT //// 12/06 Q1023
 
LIPK - Forlì (27 m.)
Dati ricevuti: 17/09/2019 17:50
Dati non aggiornati
Sereno
Sereno
 Vento da E
Vento: E 13 km/h
TEMPERATURA: 29°C
Indice di Calore: 29°C
P.to di Rugiada: 16°C
Umidità: 45%
Pressione: 1012 hPa
Condizioni generali: Sereno
Visibilità: oltre 10 km
2019/09/17 15:50 LIPK 171550Z 08007KT CAVOK 29/16 Q1012
 
LIRS - Grosseto (5 m.)
Dati ricevuti: 18/09/2019 04:55
Poco nuvoloso
Poco nuvoloso
 Vento da NE
Vento: NE 7 km/h
TEMPERATURA: 18°C
P.to di Rugiada: 16°C
Umidità: 88%
Pressione: 1015 hPa
Nuvole: Poco nuvoloso
Visibilità: 6 km
Dettagli Nuvole: Poco nuvoloso 610 m
2019/09/18 02:55 LIRS 180255Z 05004KT 6000 SCT020 18/16 Q1015
 
LIRP - Pisa S.Giusto (2 m.)
Dati ricevuti: 18/09/2019 05:15
Poco nuvoloso
Poco nuvoloso
 Vento da E
Vento: E 6 km/h
TEMPERATURA: 18°C
P.to di Rugiada: 17°C
Umidità: 94%
Pressione: 1015 hPa
Nuvole: Poco nuvoloso
Visibilità: 10 km
Dettagli Nuvole: Poco nuvoloso 457 m
Poco nuvoloso 1372 m
2019/09/18 03:15 LIRP 180315Z 10003KT 060V150 9999 SCT015 SCT045 18/17 Q1015 NOSIG